createdAt,value
2022-11-13T00:02:10.234Z,21.30
2022-11-13T00:04:56.497Z,23.40
2022-11-13T00:07:42.430Z,14.73
2022-11-13T00:10:28.413Z,13.28
2022-11-13T00:13:14.617Z,13.38
2022-11-13T00:16:04.801Z,13.70
2022-11-13T00:18:51.083Z,13.60
2022-11-13T00:21:37.537Z,12.78
2022-11-13T00:24:23.976Z,12.63
2022-11-13T00:27:09.855Z,12.03
2022-11-13T00:29:56.018Z,11.43
2022-11-13T00:32:42.241Z,12.53
2022-11-13T00:35:27.935Z,13.35
2022-11-13T00:38:13.685Z,11.90
2022-11-13T00:41:00.575Z,12.47
2022-11-13T00:43:46.640Z,12.85
2022-11-13T00:46:32.707Z,12.25
2022-11-13T00:49:18.573Z,11.45
2022-11-13T00:52:04.729Z,11.28
2022-11-13T00:54:50.965Z,10.72
2022-11-13T00:57:36.961Z,10.30
2022-11-13T01:00:23.254Z,9.60
2022-11-13T01:03:10.269Z,9.83
2022-11-13T01:05:56.486Z,10.53
2022-11-13T01:08:42.723Z,9.83
2022-11-13T01:11:31.008Z,10.10
2022-11-13T01:14:16.944Z,9.78
2022-11-13T01:17:02.978Z,10.23
2022-11-13T01:19:49.137Z,10.32
2022-11-13T01:22:35.710Z,9.95
2022-11-13T01:25:21.938Z,9.80
2022-11-13T01:28:08.394Z,10.05
2022-11-13T01:30:54.339Z,9.43
2022-11-13T01:33:40.306Z,10.80
2022-11-13T01:36:28.610Z,10.98
2022-11-13T01:39:15.026Z,11.63
2022-11-13T01:42:01.366Z,12.43
2022-11-13T01:44:59.182Z,13.22
2022-11-13T01:47:45.240Z,12.47
2022-11-13T01:50:31.516Z,13.03
2022-11-13T01:53:18.552Z,13.38
2022-11-13T01:56:05.339Z,12.15
2022-11-13T01:59:17.682Z,13.05
2022-11-13T02:02:04.382Z,12.78
2022-11-13T02:04:50.883Z,13.45
2022-11-13T02:07:37.103Z,12.82
2022-11-13T02:10:23.103Z,11.68
2022-11-13T02:13:10.238Z,11.85
2022-11-13T02:15:57.423Z,12.30
2022-11-13T02:18:43.221Z,12.73
2022-11-13T02:21:43.549Z,12.50
2022-11-13T02:24:45.812Z,12.68
2022-11-13T02:27:38.399Z,14.40
2022-11-13T02:30:32.029Z,12.58
2022-11-13T02:33:32.977Z,12.47
2022-11-13T02:36:22.629Z,12.75
2022-11-13T02:39:11.901Z,12.03
2022-11-13T02:41:57.944Z,12.35
2022-11-13T02:44:43.475Z,12.35
2022-11-13T02:47:29.136Z,12.85
2022-11-13T02:50:17.500Z,13.32
2022-11-13T02:53:04.773Z,13.68
2022-11-13T02:55:50.663Z,15.55
2022-11-13T02:58:36.927Z,24.85
2022-11-13T03:01:23.303Z,17.52
2022-11-13T03:04:09.278Z,14.80
2022-11-13T03:06:55.572Z,16.70
2022-11-13T03:09:41.735Z,15.70
2022-11-13T03:12:27.794Z,14.83
2022-11-13T03:15:13.868Z,14.65
2022-11-13T03:18:06.057Z,15.08
2022-11-13T03:20:53.635Z,15.60
2022-11-13T03:23:41.106Z,17.62
2022-11-13T03:26:27.850Z,16.57
2022-11-13T03:29:14.838Z,16.07
2022-11-13T03:32:02.751Z,15.10
2022-11-13T03:34:48.640Z,14.68
2022-11-13T03:37:34.223Z,14.50
2022-11-13T03:40:20.765Z,14.80
2022-11-13T03:43:06.845Z,14.35
2022-11-13T03:45:52.638Z,15.32
2022-11-13T03:48:38.820Z,13.60
2022-11-13T03:51:24.829Z,13.10
2022-11-13T03:54:10.970Z,13.25
2022-11-13T03:56:57.799Z,13.40
2022-11-13T03:59:43.563Z,13.60
2022-11-13T04:02:29.583Z,12.93
2022-11-13T04:05:20.040Z,11.10
2022-11-13T04:08:04.703Z,12.10
2022-11-13T04:10:50.920Z,10.30
2022-11-13T04:13:37.857Z,11.63
2022-11-13T04:16:23.893Z,11.78
2022-11-13T04:19:09.614Z,11.85
2022-11-13T04:21:55.918Z,11.88
2022-11-13T04:24:41.415Z,12.40
2022-11-13T04:27:27.682Z,11.55
2022-11-13T04:30:13.452Z,12.33
2022-11-13T04:32:59.077Z,14.90
2022-11-13T04:35:45.539Z,15.55
2022-11-13T04:38:32.081Z,17.12
2022-11-13T04:41:36.754Z,13.98
2022-11-13T04:44:23.169Z,11.83
2022-11-13T04:47:09.600Z,12.73
2022-11-13T04:49:55.569Z,13.62
2022-11-13T04:52:43.079Z,16.55
2022-11-13T04:55:29.432Z,21.90
2022-11-13T04:58:15.731Z,38.63
2022-11-13T05:01:03.675Z,44.73
2022-11-13T05:03:49.678Z,43.75
2022-11-13T05:06:35.678Z,43.55
2022-11-13T05:09:21.656Z,33.15
2022-11-13T05:12:08.396Z,32.10
2022-11-13T05:14:54.304Z,26.48
2022-11-13T05:17:40.287Z,35.58
2022-11-13T05:20:26.326Z,39.10
2022-11-13T05:23:12.449Z,21.73
2022-11-13T05:26:08.256Z,15.98
2022-11-13T05:28:59.937Z,14.70
2022-11-13T05:31:46.798Z,15.15
2022-11-13T05:34:32.854Z,16.42
2022-11-13T05:37:19.078Z,19.67
2022-11-13T05:40:06.631Z,21.77
2022-11-13T05:42:54.317Z,19.55
2022-11-13T05:45:40.536Z,18.40
2022-11-13T05:48:26.855Z,30.50
2022-11-13T05:51:17.912Z,38.15
2022-11-13T05:54:05.682Z,30.60
2022-11-13T05:56:51.701Z,24.70
2022-11-13T05:59:37.475Z,23.87
2022-11-13T06:02:23.188Z,22.15
2022-11-13T06:05:09.539Z,22.35
2022-11-13T06:07:55.976Z,17.07
2022-11-13T06:10:42.165Z,17.73
2022-11-13T06:13:28.409Z,16.57
2022-11-13T06:16:21.515Z,20.08
2022-11-13T06:19:10.050Z,22.87
2022-11-13T06:21:56.265Z,23.15
2022-11-13T06:24:42.803Z,26.25
2022-11-13T06:27:28.723Z,22.85
2022-11-13T06:30:15.175Z,23.73
2022-11-13T06:33:01.322Z,21.95
2022-11-13T06:35:47.666Z,15.50
2022-11-13T06:38:36.893Z,12.73
2022-11-13T06:41:26.261Z,12.20
2022-11-13T06:44:12.164Z,12.63
2022-11-13T06:46:58.109Z,11.95
2022-11-13T06:49:44.152Z,11.83
2022-11-13T06:52:30.503Z,13.13
2022-11-13T06:55:16.553Z,15.18
2022-11-13T06:58:02.494Z,16.20
2022-11-13T07:00:48.467Z,20.02
2022-11-13T07:03:35.403Z,19.57
2022-11-13T07:06:23.940Z,23.75
2022-11-13T07:09:09.846Z,20.30
2022-11-13T07:11:55.706Z,19.42
2022-11-13T07:14:41.888Z,18.27
2022-11-13T07:17:28.532Z,15.88
2022-11-13T07:20:14.254Z,14.30
2022-11-13T07:23:02.799Z,11.70
2022-11-13T07:25:49.188Z,10.95
2022-11-13T07:28:35.201Z,16.10
2022-11-13T07:31:21.515Z,19.12
2022-11-13T07:34:07.870Z,19.35
2022-11-13T07:36:54.001Z,15.78
2022-11-13T07:39:39.631Z,17.17
2022-11-13T07:42:25.511Z,15.35
2022-11-13T07:45:11.518Z,13.80
2022-11-13T07:48:02.403Z,13.45
2022-11-13T07:50:49.127Z,14.38
2022-11-13T07:53:35.664Z,11.85
2022-11-13T07:56:23.260Z,11.25
2022-11-13T07:59:09.294Z,10.32
2022-11-13T08:01:55.679Z,9.20
2022-11-13T08:04:42.261Z,10.25
2022-11-13T08:07:28.530Z,10.20
2022-11-13T08:10:15.918Z,7.83
2022-11-13T08:13:08.340Z,8.03
2022-11-13T08:15:54.353Z,8.13
2022-11-13T08:18:40.355Z,8.13
2022-11-13T08:21:26.192Z,7.40
2022-11-13T08:24:12.314Z,7.42
2022-11-13T08:26:58.458Z,7.60
2022-11-13T08:29:44.166Z,7.33
2022-11-13T08:32:30.477Z,7.22
2022-11-13T08:35:19.436Z,7.50
2022-11-13T08:38:07.948Z,8.25
2022-11-13T08:41:01.266Z,8.38
2022-11-13T08:43:47.305Z,13.80
2022-11-13T08:46:32.935Z,12.43
2022-11-13T08:49:19.196Z,12.43
2022-11-13T08:52:05.351Z,11.93
2022-11-13T08:54:51.112Z,13.35
2022-11-13T08:57:37.298Z,12.30
2022-11-13T09:00:23.168Z,12.88
2022-11-13T09:03:11.847Z,12.10
2022-11-13T09:05:58.030Z,10.95
2022-11-13T09:08:44.025Z,11.22
2022-11-13T09:11:30.252Z,12.58
2022-11-13T09:14:16.251Z,13.35
2022-11-13T09:17:02.188Z,12.40
2022-11-13T09:19:48.339Z,12.82
2022-11-13T09:22:35.206Z,12.15
2022-11-13T09:25:21.394Z,11.40
2022-11-13T09:28:09.372Z,11.22
2022-11-13T09:30:55.420Z,10.32
2022-11-13T09:33:41.371Z,9.25
2022-11-13T09:36:27.252Z,9.08
2022-11-13T09:39:13.205Z,9.73
2022-11-13T09:42:13.745Z,8.23
2022-11-13T09:45:07.626Z,7.72
2022-11-13T09:47:58.902Z,7.67
2022-11-13T09:50:44.944Z,8.03
2022-11-13T09:53:35.059Z,7.87
2022-11-13T09:56:47.611Z,8.38
2022-11-13T09:59:54.003Z,8.13
2022-11-13T10:02:57.994Z,7.40
2022-11-13T10:06:01.515Z,7.83
2022-11-13T10:08:53.175Z,7.35
2022-11-13T10:11:48.098Z,8.23
2022-11-13T10:14:38.658Z,7.50
2022-11-13T10:17:44.324Z,8.13
2022-11-13T10:20:35.840Z,7.05
2022-11-13T10:23:35.744Z,7.25
2022-11-13T10:26:26.642Z,7.60
2022-11-13T10:29:19.305Z,8.13
2022-11-13T10:32:26.736Z,7.83
2022-11-13T10:35:48.622Z,8.05
2022-11-13T10:38:52.305Z,7.72
2022-11-13T10:41:50.959Z,7.92
2022-11-13T10:44:37.497Z,8.80
2022-11-13T10:48:02.054Z,9.13
2022-11-13T10:50:24.833Z,8.90
2022-11-13T10:53:19.433Z,8.75
2022-11-13T10:56:30.681Z,8.55
2022-11-13T10:59:19.870Z,8.45
2022-11-13T11:02:19.634Z,9.58
2022-11-13T11:05:19.536Z,8.43
2022-11-13T11:08:10.590Z,9.43
2022-11-13T11:11:34.550Z,8.65
2022-11-13T11:14:32.037Z,10.82
2022-11-13T11:17:21.215Z,8.85
2022-11-13T11:20:33.825Z,8.60
2022-11-13T11:23:49.540Z,8.48
2022-11-13T11:26:49.933Z,9.15
2022-11-13T11:30:04.189Z,9.03
2022-11-13T11:32:58.194Z,9.13
2022-11-13T11:39:00.692Z,9.63
2022-11-13T11:41:55.014Z,8.50
2022-11-13T11:45:10.492Z,7.75
2022-11-13T11:47:59.030Z,9.65
2022-11-13T11:51:05.737Z,9.95
2022-11-13T11:54:33.924Z,8.23
2022-11-13T11:57:37.448Z,8.48
2022-11-13T12:00:24.263Z,9.23
2022-11-13T12:03:21.081Z,8.10
2022-11-13T12:06:27.721Z,8.68
2022-11-13T12:09:36.428Z,8.43
2022-11-13T12:12:33.805Z,8.43
2022-11-13T12:15:46.832Z,7.35
2022-11-13T12:19:13.109Z,8.38
2022-11-13T12:22:39.872Z,7.05
2022-11-13T12:25:55.498Z,7.28
2022-11-13T12:29:02.191Z,9.93
2022-11-13T12:32:44.221Z,7.78
2022-11-13T12:35:30.682Z,7.60
2022-11-13T12:38:34.795Z,7.72
2022-11-13T12:41:50.565Z,8.10
2022-11-13T12:44:44.628Z,7.70
2022-11-13T12:50:32.426Z,7.33
2022-11-13T12:53:27.475Z,7.58
2022-11-13T12:56:21.757Z,7.90
2022-11-13T12:59:31.006Z,7.45
2022-11-13T13:02:36.704Z,7.62
2022-11-13T13:05:28.164Z,7.00
2022-11-13T13:08:32.086Z,7.60
2022-11-13T13:11:42.229Z,7.80
2022-11-13T13:14:46.158Z,8.03
2022-11-13T13:17:31.843Z,8.35
2022-11-13T13:20:26.328Z,8.95
2022-11-13T13:23:14.076Z,8.73
2022-11-13T13:26:22.629Z,9.35
2022-11-13T13:29:24.510Z,9.48
2022-11-13T13:32:37.747Z,9.80
2022-11-13T13:35:41.252Z,10.03
2022-11-13T13:38:52.267Z,10.50
2022-11-13T13:42:03.663Z,10.70
2022-11-13T13:45:15.318Z,11.50
2022-11-13T13:48:02.705Z,10.80
2022-11-13T13:50:51.002Z,11.75
2022-11-13T13:53:36.969Z,12.47
2022-11-13T13:56:25.011Z,12.55
2022-11-13T13:59:15.079Z,13.18
2022-11-13T14:02:05.949Z,13.55
2022-11-13T14:04:54.384Z,14.10
2022-11-13T14:07:46.519Z,13.85
2022-11-13T14:10:37.506Z,12.18
2022-11-13T14:13:28.853Z,12.88
2022-11-13T14:16:15.461Z,13.13
2022-11-13T14:19:05.524Z,14.03
2022-11-13T14:21:59.114Z,14.00
2022-11-13T14:24:53.238Z,14.37
2022-11-13T14:27:39.433Z,15.60
2022-11-13T14:30:28.272Z,16.75
2022-11-13T14:33:22.794Z,18.70
2022-11-13T14:36:09.171Z,17.70
2022-11-13T14:38:56.333Z,20.00
2022-11-13T14:41:56.216Z,21.55
2022-11-13T14:44:42.443Z,26.25
2022-11-13T14:47:31.972Z,29.95
2022-11-13T14:50:26.045Z,30.00
2022-11-13T14:53:11.934Z,26.77
2022-11-13T14:56:01.997Z,28.55
2022-11-13T14:58:48.000Z,29.50
2022-11-13T15:01:34.546Z,23.95
2022-11-13T15:04:21.410Z,21.07
2022-11-13T15:07:21.824Z,20.30
2022-11-13T15:10:14.170Z,20.80
2022-11-13T15:13:00.473Z,20.02
2022-11-13T15:15:46.593Z,19.82
2022-11-13T15:18:33.299Z,20.40
2022-11-13T15:21:19.485Z,19.62
2022-11-13T15:24:06.390Z,21.05
2022-11-13T15:26:52.674Z,17.80
2022-11-13T15:29:38.797Z,17.70
2022-11-13T15:32:26.799Z,18.85
2022-11-13T15:35:17.058Z,19.75
2022-11-13T15:38:03.027Z,20.88
2022-11-13T15:40:49.102Z,20.10
2022-11-13T15:43:35.195Z,20.45
2022-11-13T15:46:23.938Z,18.45
2022-11-13T15:49:10.239Z,18.57
2022-11-13T15:51:56.481Z,19.15
2022-11-13T15:54:42.940Z,17.50
2022-11-13T15:57:30.453Z,17.73
2022-11-13T16:00:21.016Z,18.05
2022-11-13T16:03:08.785Z,18.07
2022-11-13T16:05:54.977Z,16.37
2022-11-13T16:08:40.957Z,17.30
2022-11-13T16:11:32.112Z,16.15
2022-11-13T16:14:23.417Z,17.12
2022-11-13T16:17:18.297Z,15.35
2022-11-13T16:20:06.654Z,14.70
2022-11-13T16:22:53.181Z,15.40
2022-11-13T16:25:39.209Z,14.50
2022-11-13T16:28:24.912Z,15.32
2022-11-13T16:31:10.834Z,14.00
2022-11-13T16:33:56.856Z,16.62
2022-11-13T16:36:42.981Z,14.18
2022-11-13T16:39:29.801Z,13.98
2022-11-13T16:42:16.596Z,13.80
2022-11-13T16:45:02.973Z,13.98
2022-11-13T16:47:50.091Z,14.18
2022-11-13T16:50:38.260Z,18.00
2022-11-13T16:53:24.064Z,15.30
2022-11-13T16:56:17.111Z,15.93
2022-11-13T16:59:03.410Z,15.58
2022-11-13T17:01:55.031Z,17.87
2022-11-13T17:04:42.517Z,18.17
2022-11-13T17:07:28.959Z,19.98
2022-11-13T17:10:34.769Z,21.20
2022-11-13T17:13:09.144Z,118.10
2022-11-13T17:15:55.259Z,55.35
2022-11-13T17:18:41.495Z,36.98
2022-11-13T17:21:28.962Z,49.00
2022-11-13T17:24:15.479Z,74.55
2022-11-13T17:27:01.899Z,25.45
2022-11-13T17:29:47.563Z,22.25
2022-11-13T17:32:33.346Z,30.55
2022-11-13T17:35:19.016Z,21.65
2022-11-13T17:38:05.057Z,17.92
2022-11-13T17:40:53.150Z,17.92
2022-11-13T17:43:40.944Z,17.30
2022-11-13T17:46:26.739Z,17.23
2022-11-13T17:49:12.442Z,17.57
2022-11-13T17:51:58.126Z,17.50
2022-11-13T17:54:44.018Z,16.62
2022-11-13T17:57:32.804Z,15.13
2022-11-13T18:00:20.784Z,17.77
2022-11-13T18:03:07.602Z,27.62
2022-11-13T18:05:53.898Z,24.70
2022-11-13T18:08:40.847Z,19.15
2022-11-13T18:11:29.806Z,19.75
2022-11-13T18:14:15.810Z,21.02
2022-11-13T18:17:01.710Z,21.80
2022-11-13T18:19:47.827Z,22.75
2022-11-13T18:22:33.896Z,23.22
2022-11-13T18:25:19.949Z,24.87
2022-11-13T18:28:06.048Z,27.62
2022-11-13T18:30:56.456Z,28.50
2022-11-13T18:33:40.364Z,34.13
2022-11-13T18:36:26.320Z,36.15
2022-11-13T18:39:16.612Z,39.05
2022-11-13T18:42:00.671Z,37.58
2022-11-13T18:44:46.969Z,36.38
2022-11-13T18:47:33.414Z,36.83
2022-11-13T18:50:21.595Z,34.03
2022-11-13T18:53:07.527Z,37.10
2022-11-13T18:55:55.354Z,33.30
2022-11-13T18:58:44.137Z,29.77
2022-11-13T19:01:33.197Z,31.45
2022-11-13T19:04:23.600Z,34.38
2022-11-13T19:07:08.387Z,33.42
2022-11-13T19:09:54.577Z,27.45
2022-11-13T19:12:41.652Z,22.02
2022-11-13T19:15:27.759Z,22.65
2022-11-13T19:18:14.239Z,22.82
2022-11-13T19:21:08.846Z,19.92
2022-11-13T19:23:56.316Z,21.48
2022-11-13T19:26:43.951Z,21.00
2022-11-13T19:29:29.910Z,21.70
2022-11-13T19:32:16.592Z,21.20
2022-11-13T19:35:02.779Z,22.17
2022-11-13T19:37:52.229Z,22.25
2022-11-13T19:40:38.011Z,20.88
2022-11-13T19:43:23.910Z,22.77
2022-11-13T19:46:12.935Z,23.38
2022-11-13T19:48:59.445Z,20.70
2022-11-13T19:51:45.350Z,26.70
2022-11-13T19:54:31.291Z,24.57
2022-11-13T19:57:17.586Z,24.05
2022-11-13T20:00:04.956Z,24.95
2022-11-13T20:02:50.896Z,28.60
2022-11-13T20:05:42.821Z,29.87
2022-11-13T20:08:29.320Z,31.17
2022-11-13T20:11:16.557Z,33.02
2022-11-13T20:14:02.302Z,33.50
2022-11-13T20:16:48.636Z,37.28
2022-11-13T20:19:35.067Z,38.92
2022-11-13T20:22:21.045Z,38.02
2022-11-13T20:25:08.420Z,35.78
2022-11-13T20:27:55.578Z,33.88
2022-11-13T20:30:41.497Z,36.10
2022-11-13T20:33:31.525Z,37.73
2022-11-13T20:36:18.165Z,36.48
2022-11-13T20:39:08.980Z,31.55
2022-11-13T20:41:52.448Z,29.35
2022-11-13T20:44:38.226Z,27.20
2022-11-13T20:47:24.219Z,28.40
2022-11-13T20:50:10.770Z,35.43
2022-11-13T20:52:56.672Z,31.17
2022-11-13T20:55:44.436Z,26.02
2022-11-13T20:58:31.709Z,26.27
2022-11-13T21:01:24.769Z,25.08
2022-11-13T21:04:10.923Z,26.07
2022-11-13T21:06:57.373Z,26.80
2022-11-13T21:09:48.708Z,25.17
2022-11-13T21:12:32.231Z,29.40
2022-11-13T21:15:18.114Z,30.05
2022-11-13T21:18:05.522Z,29.05
2022-11-13T21:20:52.023Z,35.65
2022-11-13T21:23:38.450Z,34.27
2022-11-13T21:26:25.228Z,32.45
2022-11-13T21:29:11.043Z,31.25
2022-11-13T21:31:56.777Z,35.08
2022-11-13T21:34:43.097Z,33.63
2022-11-13T21:37:29.239Z,33.98
2022-11-13T21:40:15.112Z,32.60
2022-11-13T21:43:01.522Z,37.10
2022-11-13T21:45:47.153Z,40.65
2022-11-13T21:48:34.334Z,51.53
2022-11-13T21:51:20.796Z,69.03
2022-11-13T21:54:07.449Z,59.60
2022-11-13T21:56:53.575Z,35.55
2022-11-13T21:59:39.396Z,30.35
2022-11-13T22:02:25.602Z,27.20
2022-11-13T22:05:11.890Z,28.02
2022-11-13T22:07:58.215Z,29.12
2022-11-13T22:10:44.208Z,28.47
2022-11-13T22:13:30.735Z,29.50
2022-11-13T22:16:16.820Z,25.88
2022-11-13T22:19:06.374Z,24.90
2022-11-13T22:21:54.516Z,30.60
2022-11-13T22:24:40.975Z,30.52
2022-11-13T22:27:26.937Z,26.73
2022-11-13T22:30:13.348Z,26.87
2022-11-13T22:33:00.175Z,39.65
2022-11-13T22:35:46.134Z,26.73
2022-11-13T22:38:34.527Z,20.85
2022-11-13T22:41:24.403Z,21.00
2022-11-13T22:44:13.889Z,19.65
2022-11-13T22:46:59.983Z,19.05
2022-11-13T22:49:48.033Z,18.80
2022-11-13T22:52:33.984Z,19.00
2022-11-13T22:55:20.228Z,19.10
2022-11-13T22:58:06.441Z,18.10
2022-11-13T23:00:52.460Z,19.62
2022-11-13T23:03:41.506Z,18.75
2022-11-13T23:06:31.753Z,18.37
2022-11-13T23:09:17.762Z,16.87
2022-11-13T23:12:04.491Z,17.23
2022-11-13T23:14:50.786Z,16.87
2022-11-13T23:17:37.037Z,16.93
2022-11-13T23:20:23.342Z,20.12
2022-11-13T23:23:09.329Z,19.35
2022-11-13T23:25:55.767Z,19.92
2022-11-13T23:28:42.169Z,16.27
2022-11-13T23:31:28.250Z,15.90
2022-11-13T23:34:16.647Z,16.70
2022-11-13T23:37:01.876Z,15.23
2022-11-13T23:39:47.904Z,16.42
2022-11-13T23:42:54.185Z,16.57
2022-11-13T23:45:22.038Z,16.62
2022-11-13T23:48:08.130Z,16.73
2022-11-13T23:50:54.162Z,16.27
2022-11-13T23:53:40.657Z,18.17
2022-11-13T23:56:26.409Z,17.10
2022-11-13T23:59:13.261Z,16.42
